createdAt,value
2022-10-09T00:00:49.762Z,47.80
2022-10-09T00:03:19.173Z,47.97
2022-10-09T00:05:48.300Z,47.93
2022-10-09T00:08:16.068Z,46.90
2022-10-09T00:10:44.446Z,47.87
2022-10-09T00:13:12.542Z,47.93
2022-10-09T00:15:40.927Z,48.00
2022-10-09T00:18:08.778Z,47.73
2022-10-09T00:20:38.042Z,47.63
2022-10-09T00:23:07.253Z,47.87
2022-10-09T00:25:36.330Z,47.77
2022-10-09T00:28:05.445Z,47.73
2022-10-09T00:30:33.620Z,47.97
2022-10-09T00:33:01.379Z,47.53
2022-10-09T00:35:29.186Z,47.97
2022-10-09T00:37:56.974Z,47.90
2022-10-09T00:40:26.595Z,47.70
2022-10-09T00:42:57.213Z,47.60
2022-10-09T00:45:25.487Z,47.93
2022-10-09T00:47:56.907Z,47.87
2022-10-09T00:50:29.084Z,48.07
2022-10-09T00:53:00.027Z,47.73
2022-10-09T00:55:29.835Z,47.80
2022-10-09T00:58:00.083Z,47.43
2022-10-09T01:00:28.320Z,47.70
2022-10-09T01:02:56.251Z,47.80
2022-10-09T01:05:29.742Z,47.70
2022-10-09T01:08:02.380Z,47.83
2022-10-09T01:10:39.657Z,47.83
2022-10-09T01:13:13.151Z,47.83
2022-10-09T01:15:49.017Z,48.00
2022-10-09T01:18:23.915Z,47.93
2022-10-09T01:20:56.487Z,47.83
2022-10-09T01:23:43.920Z,47.33
2022-10-09T01:26:33.573Z,47.67
2022-10-09T01:29:06.681Z,47.43
2022-10-09T01:31:39.291Z,47.33
2022-10-09T01:34:08.669Z,47.77
2022-10-09T01:36:37.887Z,47.90
2022-10-09T01:39:07.405Z,47.70
2022-10-09T01:41:35.670Z,47.43
2022-10-09T01:44:04.897Z,47.47
2022-10-09T01:46:33.983Z,47.47
2022-10-09T01:49:13.248Z,47.53
2022-10-09T01:51:51.077Z,47.40
2022-10-09T01:54:22.549Z,47.37
2022-10-09T01:56:52.119Z,47.50
2022-10-09T01:59:21.432Z,47.53
2022-10-09T02:01:50.737Z,47.47
2022-10-09T02:04:20.023Z,47.67
2022-10-09T02:06:48.611Z,47.37
2022-10-09T02:09:18.744Z,47.47
2022-10-09T02:11:52.383Z,47.60
2022-10-09T02:14:21.573Z,47.47
2022-10-09T02:16:53.670Z,47.30
2022-10-09T02:19:26.013Z,47.00
2022-10-09T02:21:57.624Z,47.30
2022-10-09T02:24:26.442Z,47.57
2022-10-09T02:26:57.304Z,47.70
2022-10-09T02:29:26.809Z,47.03
2022-10-09T02:31:54.626Z,47.57
2022-10-09T02:34:22.639Z,47.77
2022-10-09T02:36:50.872Z,48.83
2022-10-09T02:39:18.780Z,48.40
2022-10-09T02:41:46.580Z,48.03
2022-10-09T02:44:14.385Z,48.07
2022-10-09T02:46:43.629Z,48.00
2022-10-09T02:49:12.059Z,47.87
2022-10-09T02:51:39.875Z,47.73
2022-10-09T02:54:07.801Z,47.73
2022-10-09T02:56:38.996Z,47.93
2022-10-09T02:59:07.292Z,47.77
2022-10-09T03:01:35.292Z,47.70
2022-10-09T03:04:04.771Z,47.50
2022-10-09T03:06:32.999Z,47.80
2022-10-09T03:09:00.808Z,47.30
2022-10-09T03:11:28.693Z,47.47
2022-10-09T03:13:56.599Z,47.47
2022-10-09T03:16:25.988Z,47.70
2022-10-09T03:18:54.724Z,47.27
2022-10-09T03:21:25.388Z,47.47
2022-10-09T03:23:53.588Z,47.47
2022-10-09T03:26:24.579Z,47.40
2022-10-09T03:28:53.940Z,47.57
2022-10-09T03:31:50.448Z,47.53
2022-10-09T03:34:12.605Z,47.37
2022-10-09T03:36:42.172Z,47.53
2022-10-09T03:39:10.083Z,47.57
2022-10-09T03:41:37.872Z,47.57
2022-10-09T03:44:05.774Z,47.53
2022-10-09T03:46:35.377Z,47.37
2022-10-09T03:49:03.147Z,47.30
2022-10-09T03:51:30.931Z,47.33
2022-10-09T03:54:00.056Z,47.47
2022-10-09T03:56:27.864Z,47.47
2022-10-09T03:58:55.694Z,47.67
2022-10-09T04:01:23.595Z,47.77
2022-10-09T04:03:51.420Z,47.63
2022-10-09T04:06:19.187Z,47.30
2022-10-09T04:08:46.961Z,47.70
2022-10-09T04:11:16.095Z,47.23
2022-10-09T04:13:43.872Z,47.33
2022-10-09T04:16:12.700Z,47.37
2022-10-09T04:18:40.710Z,47.30
2022-10-09T04:21:08.923Z,47.37
2022-10-09T04:23:36.722Z,47.30
2022-10-09T04:26:04.505Z,47.47
2022-10-09T04:28:34.202Z,47.43
2022-10-09T04:31:02.319Z,47.60
2022-10-09T04:33:30.130Z,47.77
2022-10-09T04:35:58.526Z,47.23
2022-10-09T04:38:26.501Z,47.27
2022-10-09T04:40:58.122Z,47.50
2022-10-09T04:43:26.288Z,47.30
2022-10-09T04:45:55.744Z,47.37
2022-10-09T04:48:23.615Z,47.40
2022-10-09T04:50:51.439Z,47.37
2022-10-09T04:53:19.243Z,47.40
2022-10-09T04:55:47.255Z,47.40
2022-10-09T04:58:15.072Z,47.10
2022-10-09T05:00:43.950Z,47.70
2022-10-09T05:03:14.104Z,47.23
2022-10-09T05:05:41.954Z,47.33
2022-10-09T05:08:09.878Z,47.33
2022-10-09T05:10:37.896Z,47.33
2022-10-09T05:13:05.686Z,47.63
2022-10-09T05:15:36.648Z,47.50
2022-10-09T05:18:04.856Z,47.40
2022-10-09T05:20:33.989Z,47.33
2022-10-09T05:23:02.223Z,47.13
2022-10-09T05:25:30.007Z,47.10
2022-10-09T05:27:57.775Z,47.23
2022-10-09T05:30:25.543Z,46.63
2022-10-09T05:32:53.328Z,46.53
2022-10-09T05:35:21.099Z,47.00
2022-10-09T05:37:50.245Z,46.40
2022-10-09T05:40:18.037Z,46.47
2022-10-09T05:42:45.900Z,46.50
2022-10-09T05:45:13.911Z,45.83
2022-10-09T05:47:41.663Z,46.07
2022-10-09T05:50:10.281Z,45.83
2022-10-09T05:52:39.871Z,45.53
2022-10-09T05:55:09.521Z,45.93
2022-10-09T05:57:37.262Z,45.77
2022-10-09T06:00:05.932Z,45.70
2022-10-09T06:02:40.130Z,45.70
2022-10-09T06:05:08.575Z,45.90
2022-10-09T06:07:36.344Z,45.50
2022-10-09T06:10:04.486Z,45.60
2022-10-09T06:12:33.616Z,45.57
2022-10-09T06:15:01.471Z,45.60
2022-10-09T06:17:29.239Z,45.47
2022-10-09T06:19:57.082Z,45.50
2022-10-09T06:22:25.013Z,45.40
2022-10-09T06:24:52.783Z,45.57
2022-10-09T06:27:20.582Z,45.60
2022-10-09T06:29:49.693Z,45.50
2022-10-09T06:32:17.468Z,45.40
2022-10-09T06:34:45.236Z,45.17
2022-10-09T06:37:13.025Z,45.57
2022-10-09T06:39:40.782Z,45.50
2022-10-09T06:42:08.623Z,45.10
2022-10-09T06:44:54.642Z,45.43
2022-10-09T06:47:22.410Z,45.50
2022-10-09T06:49:50.160Z,45.40
2022-10-09T06:52:17.936Z,45.40
2022-10-09T06:54:45.732Z,45.57
2022-10-09T06:57:13.520Z,45.60
2022-10-09T06:59:41.284Z,45.53
2022-10-09T07:02:11.001Z,45.37
2022-10-09T07:04:38.829Z,45.63
2022-10-09T07:07:06.624Z,45.40
2022-10-09T07:09:34.558Z,45.47
2022-10-09T07:12:02.328Z,45.60
2022-10-09T07:14:30.714Z,45.47
2022-10-09T07:16:58.500Z,45.70
2022-10-09T07:19:27.622Z,45.60
2022-10-09T07:21:55.419Z,45.87
2022-10-09T07:24:25.266Z,46.00
2022-10-09T07:26:55.259Z,46.50
2022-10-09T07:29:23.105Z,46.77
2022-10-09T07:31:50.870Z,46.80
2022-10-09T07:34:18.643Z,47.03
2022-10-09T07:36:47.807Z,47.30
2022-10-09T07:39:15.701Z,47.40
2022-10-09T07:41:44.014Z,47.90
2022-10-09T07:44:12.191Z,48.07
2022-10-09T07:46:40.096Z,48.00
2022-10-09T07:49:07.914Z,48.00
2022-10-09T07:51:35.742Z,48.30
2022-10-09T07:54:05.122Z,47.90
2022-10-09T07:56:35.274Z,48.40
2022-10-09T07:59:06.190Z,48.27
2022-10-09T08:01:35.585Z,48.17
2022-10-09T08:04:04.483Z,47.97
2022-10-09T08:06:33.102Z,48.57
2022-10-09T08:09:02.371Z,48.67
2022-10-09T08:11:31.756Z,48.37
2022-10-09T08:13:59.906Z,48.83
2022-10-09T08:16:29.073Z,48.83
2022-10-09T08:18:58.591Z,48.93
2022-10-09T08:21:28.830Z,48.73
2022-10-09T08:23:58.139Z,48.97
2022-10-09T08:26:27.612Z,49.00
2022-10-09T08:28:58.543Z,48.93
2022-10-09T08:31:27.465Z,49.27
2022-10-09T08:33:55.866Z,49.07
2022-10-09T08:36:24.661Z,48.90
2022-10-09T08:38:53.103Z,49.03
2022-10-09T08:41:38.344Z,48.73
2022-10-09T08:44:14.670Z,48.63
2022-10-09T08:46:52.483Z,49.10
2022-10-09T08:49:27.802Z,48.77
2022-10-09T08:51:59.156Z,48.93
2022-10-09T08:54:33.981Z,49.17
2022-10-09T08:57:04.386Z,49.20
2022-10-09T08:59:33.587Z,49.10
2022-10-09T09:02:15.822Z,48.90
2022-10-09T09:04:54.939Z,49.37
2022-10-09T09:07:30.792Z,48.67
2022-10-09T09:10:06.415Z,48.83
2022-10-09T09:12:44.738Z,49.03
2022-10-09T09:15:29.548Z,49.00
2022-10-09T09:18:12.724Z,48.77
2022-10-09T09:20:48.076Z,48.93
2022-10-09T09:23:17.461Z,48.70
2022-10-09T09:25:46.649Z,48.83
2022-10-09T09:28:19.269Z,48.47
2022-10-09T09:30:51.845Z,48.73
2022-10-09T09:33:26.365Z,48.57
2022-10-09T09:36:03.194Z,48.57
2022-10-09T09:38:30.970Z,48.80
2022-10-09T09:40:59.145Z,48.67
2022-10-09T09:43:27.703Z,48.83
2022-10-09T09:45:58.250Z,48.93
2022-10-09T09:48:35.332Z,48.90
2022-10-09T09:51:26.945Z,48.87
2022-10-09T09:53:55.420Z,48.77
2022-10-09T09:56:47.725Z,48.77
2022-10-09T09:59:32.030Z,48.93
2022-10-09T10:02:13.032Z,48.77
2022-10-09T10:04:51.095Z,48.97
2022-10-09T10:07:29.528Z,49.07
2022-10-09T10:10:08.155Z,48.93
2022-10-09T10:12:41.484Z,48.80
2022-10-09T10:15:18.464Z,49.00
2022-10-09T10:17:49.353Z,49.27
2022-10-09T10:20:17.921Z,49.20
2022-10-09T10:22:52.142Z,48.83
2022-10-09T10:25:22.838Z,49.07
2022-10-09T10:27:53.174Z,49.17
2022-10-09T10:30:21.198Z,49.03
2022-10-09T10:32:56.655Z,48.90
2022-10-09T10:35:28.279Z,49.13
2022-10-09T10:38:05.379Z,49.03
2022-10-09T10:40:36.463Z,49.10
2022-10-09T10:43:15.717Z,49.10
2022-10-09T10:45:53.630Z,48.90
2022-10-09T10:48:26.580Z,49.33
2022-10-09T10:51:02.853Z,48.93
2022-10-09T10:53:45.127Z,49.07
2022-10-09T10:56:21.129Z,49.17
2022-10-09T10:58:55.846Z,49.03
2022-10-09T11:01:37.579Z,49.23
2022-10-09T11:04:30.859Z,49.03
2022-10-09T11:07:09.006Z,49.13
2022-10-09T11:09:47.111Z,49.20
2022-10-09T11:12:43.408Z,49.27
2022-10-09T11:15:16.911Z,49.30
2022-10-09T11:17:55.186Z,48.93
2022-10-09T11:20:52.001Z,49.07
2022-10-09T11:23:27.838Z,48.67
2022-10-09T11:26:05.078Z,48.83
2022-10-09T11:28:41.261Z,49.03
2022-10-09T11:31:14.579Z,48.57
2022-10-09T11:33:45.552Z,48.93
2022-10-09T11:36:20.752Z,49.00
2022-10-09T11:38:53.599Z,48.97
2022-10-09T11:41:21.814Z,49.07
2022-10-09T11:43:58.077Z,48.93
2022-10-09T11:46:35.683Z,48.70
2022-10-09T11:49:10.316Z,48.90
2022-10-09T11:51:45.420Z,48.80
2022-10-09T11:54:17.121Z,49.03
2022-10-09T11:56:54.636Z,48.77
2022-10-09T11:59:25.935Z,48.67
2022-10-09T12:01:53.800Z,48.83
2022-10-09T12:04:43.549Z,49.03
2022-10-09T12:07:14.391Z,48.70
2022-10-09T12:09:44.513Z,48.90
2022-10-09T12:12:23.828Z,48.83
2022-10-09T12:14:53.107Z,48.70
2022-10-09T12:17:34.882Z,48.57
2022-10-09T12:20:06.618Z,48.53
2022-10-09T12:22:41.363Z,48.83
2022-10-09T12:25:17.838Z,48.97
2022-10-09T12:27:47.138Z,48.97
2022-10-09T12:30:21.945Z,48.67
2022-10-09T12:32:55.944Z,48.93
2022-10-09T12:35:28.764Z,48.57
2022-10-09T12:37:58.017Z,48.77
2022-10-09T12:40:28.979Z,48.67
2022-10-09T12:42:58.388Z,48.70
2022-10-09T12:45:29.396Z,48.73
2022-10-09T12:48:01.072Z,48.77
2022-10-09T12:50:33.003Z,48.80
2022-10-09T12:53:05.838Z,48.83
2022-10-09T12:55:35.677Z,48.67
2022-10-09T12:58:05.811Z,48.73
2022-10-09T13:00:34.929Z,48.77
2022-10-09T13:03:03.155Z,48.53
2022-10-09T13:05:41.863Z,48.37
2022-10-09T13:08:25.779Z,48.63
2022-10-09T13:10:53.924Z,48.37
2022-10-09T13:13:26.798Z,48.60
2022-10-09T13:16:02.863Z,48.80
2022-10-09T13:18:30.984Z,48.57
2022-10-09T13:21:01.073Z,48.67
2022-10-09T13:23:33.103Z,48.73
2022-10-09T13:26:03.609Z,49.00
2022-10-09T13:28:32.654Z,48.90
2022-10-09T13:31:08.012Z,48.83
2022-10-09T13:33:36.042Z,48.37
2022-10-09T13:36:03.967Z,48.67
2022-10-09T13:38:35.111Z,48.77
2022-10-09T13:41:03.692Z,48.37
2022-10-09T13:43:31.647Z,48.60
2022-10-09T13:45:59.678Z,48.87
2022-10-09T13:48:29.336Z,48.90
2022-10-09T13:50:59.027Z,49.00
2022-10-09T13:53:27.265Z,48.80
2022-10-09T13:56:00.769Z,48.77
2022-10-09T13:58:29.287Z,48.50
2022-10-09T14:00:58.012Z,48.60
2022-10-09T14:03:25.796Z,48.87
2022-10-09T14:05:59.198Z,48.67
2022-10-09T14:08:27.355Z,48.80
2022-10-09T14:11:00.375Z,48.40
2022-10-09T14:13:28.548Z,48.63
2022-10-09T14:15:56.783Z,48.67
2022-10-09T14:18:24.704Z,48.97
2022-10-09T14:20:52.499Z,48.83
2022-10-09T14:23:20.261Z,48.93
2022-10-09T14:25:48.044Z,48.47
2022-10-09T14:28:17.353Z,49.13
2022-10-09T14:30:45.220Z,48.57
2022-10-09T14:33:13.384Z,48.83
2022-10-09T14:35:41.224Z,48.33
2022-10-09T14:38:09.084Z,48.77
2022-10-09T14:40:41.835Z,48.70
2022-10-09T14:43:09.671Z,48.70
2022-10-09T14:45:39.103Z,48.80
2022-10-09T14:48:06.956Z,48.70
2022-10-09T14:50:37.247Z,48.80
2022-10-09T14:53:05.064Z,48.83
2022-10-09T14:55:35.240Z,48.67
2022-10-09T14:58:03.032Z,48.67
2022-10-09T15:00:30.815Z,48.67
2022-10-09T15:02:59.977Z,48.80
2022-10-09T15:05:27.751Z,48.70
2022-10-09T15:07:55.511Z,48.67
2022-10-09T15:10:23.269Z,49.10
2022-10-09T15:12:51.062Z,48.60
2022-10-09T15:15:18.806Z,48.70
2022-10-09T15:17:46.725Z,48.80
2022-10-09T15:20:16.190Z,48.63
2022-10-09T15:22:44.921Z,48.90
2022-10-09T15:25:12.697Z,48.87
2022-10-09T15:27:40.500Z,48.57
2022-10-09T15:30:09.656Z,48.57
2022-10-09T15:32:37.454Z,48.83
2022-10-09T15:35:05.849Z,48.77
2022-10-09T15:37:35.062Z,48.77
2022-10-09T15:40:02.945Z,48.67
2022-10-09T15:42:31.156Z,48.57
2022-10-09T15:44:58.896Z,48.80
2022-10-09T15:47:49.521Z,48.73
2022-10-09T15:50:14.441Z,48.53
2022-10-09T15:52:43.549Z,48.43
2022-10-09T15:55:11.304Z,48.83
2022-10-09T15:57:39.099Z,48.47
2022-10-09T16:00:08.312Z,48.60
2022-10-09T16:02:36.553Z,48.30
2022-10-09T16:05:05.108Z,48.80
2022-10-09T16:07:32.911Z,48.53
2022-10-09T16:10:02.056Z,48.47
2022-10-09T16:12:29.832Z,48.50
2022-10-09T16:14:57.585Z,48.80
2022-10-09T16:17:25.371Z,48.50
2022-10-09T16:19:53.143Z,48.30
2022-10-09T16:22:20.912Z,48.43
2022-10-09T16:24:48.702Z,48.30
2022-10-09T16:27:17.852Z,48.47
2022-10-09T16:29:45.792Z,48.43
2022-10-09T16:32:13.559Z,48.47
2022-10-09T16:34:41.335Z,48.43
2022-10-09T16:37:09.149Z,48.37
2022-10-09T16:39:37.208Z,48.20
2022-10-09T16:42:05.115Z,48.23
2022-10-09T16:44:34.251Z,48.50
2022-10-09T16:47:02.031Z,48.13
2022-10-09T16:49:29.811Z,48.13
2022-10-09T16:51:57.598Z,48.37
2022-10-09T16:54:25.360Z,47.77
2022-10-09T16:56:53.175Z,48.23
2022-10-09T16:59:20.937Z,48.43
2022-10-09T17:01:50.107Z,48.23
2022-10-09T17:04:17.903Z,48.30
2022-10-09T17:06:46.390Z,48.17
2022-10-09T17:09:14.653Z,47.80
2022-10-09T17:11:43.935Z,48.17
2022-10-09T17:14:11.774Z,48.03
2022-10-09T17:16:41.872Z,48.03
2022-10-09T17:19:11.088Z,47.90
2022-10-09T17:21:38.881Z,47.67
2022-10-09T17:24:07.515Z,48.13
2022-10-09T17:26:35.708Z,47.90
2022-10-09T17:29:04.550Z,47.90
2022-10-09T17:31:32.795Z,48.10
2022-10-09T17:34:02.800Z,48.10
2022-10-09T17:36:33.851Z,48.13
2022-10-09T17:39:01.684Z,48.00
2022-10-09T17:41:30.051Z,48.17
2022-10-09T17:43:58.390Z,48.17
2022-10-09T17:46:28.692Z,48.40
2022-10-09T17:48:56.987Z,47.87
2022-10-09T17:51:26.622Z,48.30
2022-10-09T17:56:32.151Z,48.00
2022-10-09T17:59:00.828Z,48.00
2022-10-09T18:01:29.072Z,48.13
2022-10-09T18:03:57.395Z,48.20
2022-10-09T18:06:25.247Z,48.20
2022-10-09T18:08:57.816Z,47.87
2022-10-09T18:11:28.067Z,47.97
2022-10-09T18:13:56.149Z,47.80
2022-10-09T18:16:35.423Z,48.10
2022-10-09T18:19:07.748Z,48.10
2022-10-09T18:21:36.078Z,48.17
2022-10-09T18:24:05.686Z,48.10
2022-10-09T18:26:33.685Z,48.03
2022-10-09T18:29:02.014Z,47.83
2022-10-09T18:31:31.036Z,47.83
2022-10-09T18:33:59.698Z,47.97
2022-10-09T18:36:31.394Z,48.00
2022-10-09T18:39:02.118Z,47.77
2022-10-09T18:41:31.322Z,47.77
2022-10-09T18:44:00.991Z,47.93
2022-10-09T18:46:34.651Z,47.80
2022-10-09T18:49:03.321Z,47.93
2022-10-09T18:51:32.398Z,47.87
2022-10-09T18:54:03.632Z,47.80
2022-10-09T18:56:34.088Z,47.50
2022-10-09T18:59:04.643Z,47.80
2022-10-09T19:01:32.533Z,47.60
2022-10-09T19:04:00.471Z,47.63
2022-10-09T19:06:28.333Z,47.53
2022-10-09T19:09:00.419Z,47.70
2022-10-09T19:11:28.635Z,47.47
2022-10-09T19:14:00.027Z,47.63
2022-10-09T19:16:28.488Z,47.63
2022-10-09T19:18:56.455Z,47.70
2022-10-09T19:21:24.910Z,47.77
2022-10-09T19:23:53.867Z,47.70
2022-10-09T19:26:22.677Z,47.60
2022-10-09T19:28:50.572Z,47.20
2022-10-09T19:31:19.682Z,47.57
2022-10-09T19:33:47.574Z,47.90
2022-10-09T19:36:15.607Z,47.70
2022-10-09T19:38:44.094Z,47.70
2022-10-09T19:41:14.066Z,47.40
2022-10-09T19:43:42.106Z,47.60
2022-10-09T19:46:12.304Z,47.40
2022-10-09T19:48:41.810Z,47.33
2022-10-09T19:51:12.021Z,47.40
2022-10-09T19:53:39.850Z,47.23
2022-10-09T19:56:10.672Z,47.30
2022-10-09T19:58:41.567Z,47.50
2022-10-09T20:01:10.943Z,47.30
2022-10-09T20:03:39.210Z,47.23
2022-10-09T20:06:09.711Z,47.10
2022-10-09T20:08:38.457Z,47.40
2022-10-09T20:11:07.328Z,47.33
2022-10-09T20:13:36.738Z,47.33
2022-10-09T20:16:06.864Z,47.27
2022-10-09T20:18:35.307Z,47.07
2022-10-09T20:21:03.100Z,47.37
2022-10-09T20:23:32.231Z,47.27
2022-10-09T20:26:00.528Z,47.03
2022-10-09T20:28:28.394Z,47.33
2022-10-09T20:31:00.522Z,47.07
2022-10-09T20:33:28.518Z,47.07
2022-10-09T20:35:56.273Z,47.07
2022-10-09T20:38:25.920Z,47.03
2022-10-09T20:40:55.215Z,47.27
2022-10-09T20:43:22.977Z,46.83
2022-10-09T20:45:50.771Z,47.00
2022-10-09T20:48:18.570Z,46.93
2022-10-09T20:50:46.409Z,47.23
2022-10-09T20:53:14.186Z,47.10
2022-10-09T20:55:41.968Z,46.80
2022-10-09T20:58:11.079Z,47.13
2022-10-09T21:00:42.752Z,46.87
2022-10-09T21:03:12.547Z,46.93
2022-10-09T21:05:43.912Z,47.27
2022-10-09T21:08:11.694Z,47.10
2022-10-09T21:10:43.697Z,47.17
2022-10-09T21:13:13.180Z,46.90
2022-10-09T21:15:44.781Z,47.00
2022-10-09T21:18:12.956Z,46.67
2022-10-09T21:20:41.607Z,46.90
2022-10-09T21:23:10.365Z,46.97
2022-10-09T21:25:38.526Z,46.83
2022-10-09T21:28:06.803Z,46.70
2022-10-09T21:30:41.673Z,46.97
2022-10-09T21:33:10.244Z,46.77
2022-10-09T21:35:41.376Z,46.87
2022-10-09T21:38:13.254Z,46.93
2022-10-09T21:40:41.262Z,46.70
2022-10-09T21:43:10.417Z,46.67
2022-10-09T21:45:40.551Z,46.80
2022-10-09T21:48:08.761Z,46.73
2022-10-09T21:50:37.728Z,46.57
2022-10-09T21:53:05.592Z,46.70
2022-10-09T21:55:33.501Z,46.70
2022-10-09T21:58:01.355Z,47.00
2022-10-09T22:00:29.185Z,46.70
2022-10-09T22:02:58.414Z,46.70
2022-10-09T22:05:26.330Z,46.50
2022-10-09T22:07:54.101Z,46.60
2022-10-09T22:10:21.956Z,46.60
2022-10-09T22:12:50.076Z,46.67
2022-10-09T22:15:18.346Z,46.67
2022-10-09T22:17:46.101Z,46.50
2022-10-09T22:20:15.245Z,46.67
2022-10-09T22:22:42.991Z,46.53
2022-10-09T22:25:10.779Z,46.53
2022-10-09T22:27:38.548Z,46.47
2022-10-09T22:30:07.505Z,46.30
2022-10-09T22:32:35.307Z,46.63
2022-10-09T22:35:03.091Z,46.53
2022-10-09T22:37:32.230Z,46.03
2022-10-09T22:39:59.996Z,46.70
2022-10-09T22:42:27.782Z,46.50
2022-10-09T22:44:55.575Z,46.70
2022-10-09T22:47:23.330Z,46.57
2022-10-09T22:49:51.180Z,46.30
2022-10-09T22:52:18.976Z,46.43
2022-10-09T22:54:48.093Z,46.60
2022-10-09T22:57:15.892Z,46.53
2022-10-09T22:59:43.916Z,46.63
2022-10-09T23:02:12.023Z,46.47
2022-10-09T23:04:39.794Z,46.60
2022-10-09T23:07:07.551Z,46.50
2022-10-09T23:09:35.329Z,46.20
2022-10-09T23:12:04.703Z,46.23
2022-10-09T23:14:32.555Z,46.60
2022-10-09T23:17:00.307Z,46.23
2022-10-09T23:19:28.161Z,46.07
2022-10-09T23:21:55.926Z,46.63
2022-10-09T23:24:23.738Z,46.23
2022-10-09T23:26:52.499Z,46.33
2022-10-09T23:29:22.209Z,46.23
2022-10-09T23:31:53.470Z,46.23
2022-10-09T23:34:21.292Z,46.33
2022-10-09T23:36:49.034Z,46.20
2022-10-09T23:39:17.172Z,46.20
2022-10-09T23:41:44.929Z,46.30
2022-10-09T23:44:12.710Z,46.30
2022-10-09T23:46:41.853Z,46.20
2022-10-09T23:49:10.818Z,46.10
2022-10-09T23:51:38.631Z,46.13
2022-10-09T23:54:07.108Z,46.10
2022-10-09T23:56:38.102Z,45.90
2022-10-09T23:59:06.972Z,45.97
